Time;durP1;ratioP1;P1;durP2;ratioP2;P2;SDS_P1;SDS_P2;PMS_P1;PMS_P2;Temp;Humidity;BMP_temperature;BMP_pressure;BME280_temperature;BME280_humidity;BME280_pressure;Samples;Min_cycle;Max_cycle;Signal;HPM_P1;HPM_P2
2021/04/13 00:02:17;;;;;;;5.43;3.63;;;6.00;67.40;;;;;;5045222;28;20691;-90
2021/04/13 00:04:46;;;;;;;4.17;3.70;;;6.00;68.00;;;;;;5030156;28;20208;-91
2021/04/13 00:07:13;;;;;;;4.43;3.70;;;6.00;67.90;;;;;;5066246;28;20207;-91
2021/04/13 00:09:39;;;;;;;3.70;3.40;;;6.00;68.10;;;;;;5048068;28;20275;-90
2021/04/13 00:12:10;;;;;;;3.73;3.37;;;6.00;67.80;;;;;;5066419;28;20212;-90
2021/04/13 00:14:40;;;;;;;3.67;3.30;;;6.00;67.70;;;;;;5048706;28;20302;-91
2021/04/13 00:17:11;;;;;;;3.73;3.43;;;6.00;67.90;;;;;;5066072;28;20186;-91
2021/04/13 00:19:48;;;;;;;5.70;3.80;;;6.00;67.70;;;;;;5048251;28;20710;-91
2021/04/13 00:22:14;;;;;;;4.00;3.70;;;6.00;68.00;;;;;;5065872;28;20218;-90
2021/04/13 00:24:41;;;;;;;4.60;4.20;;;6.00;67.90;;;;;;5048913;28;20259;-91
2021/04/13 00:27:11;;;;;;;5.70;4.30;;;6.00;67.50;;;;;;5065905;28;20200;-90
2021/04/13 00:29:36;;;;;;;4.30;3.90;;;5.90;67.70;;;;;;5066756;28;20183;-91
2021/04/13 00:32:07;;;;;;;4.60;4.20;;;5.90;68.30;;;;;;5065970;28;20204;-90
2021/04/13 00:34:52;;;;;;;4.50;4.10;;;5.90;68.40;;;;;;5048851;28;20177;-91
2021/04/13 00:37:31;;;;;;;5.67;4.10;;;5.90;67.30;;;;;;5065772;28;20171;-91
2021/04/13 00:40:25;;;;;;;4.80;4.40;;;5.60;68.20;;;;;;5066214;28;20191;-90
2021/04/13 00:42:53;;;;;;;4.37;3.80;;;5.40;67.80;;;;;;5065962;28;20224;-90
2021/04/13 00:45:27;;;;;;;4.03;3.70;;;5.40;69.20;;;;;;5067107;28;20532;-90
2021/04/13 00:47:54;;;;;;;4.57;3.73;;;5.40;68.90;;;;;;5066648;28;20177;-90
2021/04/13 00:50:45;;;;;;;4.10;3.63;;;5.50;68.60;;;;;;5063809;28;20169;-89
2021/04/13 00:53:23;;;;;;;4.10;3.70;;;5.50;68.60;;;;;;5049700;28;20191;-90
2021/04/13 00:55:56;;;;;;;4.10;3.80;;;5.50;68.60;;;;;;5052683;28;20157;-91
2021/04/13 00:58:29;;;;;;;4.10;3.70;;;5.50;68.40;;;;;;5027835;28;20272;-91
2021/04/13 01:01:05;;;;;;;3.90;3.60;;;5.50;68.60;;;;;;5044992;28;20232;-91
2021/04/13 01:03:31;;;;;;;3.90;3.50;;;5.40;68.30;;;;;;5027528;28;20204;-91
2021/04/13 01:05:59;;;;;;;4.10;3.60;;;5.40;68.60;;;;;;5052901;28;20655;-91
2021/04/13 01:08:33;;;;;;;4.50;3.93;;;5.50;68.60;;;;;;5027482;28;20295;-90
2021/04/13 01:11:23;;;;;;;5.80;4.57;;;5.50;68.50;;;;;;5045059;28;20197;-90
2021/04/13 01:13:52;;;;;;;4.90;4.50;;;5.50;68.30;;;;;;5027232;28;20204;-91
2021/04/13 01:16:24;;;;;;;4.60;4.20;;;5.30;68.70;;;;;;5044875;28;20189;-91
2021/04/13 01:19:01;;;;;;;4.83;4.33;;;5.30;69.60;;;;;;5045245;28;20250;-90
2021/04/13 01:21:48;;;;;;;5.70;4.07;;;5.30;69.80;;;;;;5044569;28;20256;-92
2021/04/13 01:24:28;;;;;;;4.67;4.27;;;5.30;69.70;;;;;;5030740;28;20253;-92
2021/04/13 01:26:55;;;;;;;4.10;3.67;;;5.40;69.60;;;;;;5032533;28;20552;-92
2021/04/13 01:29:26;;;;;;;4.00;3.70;;;5.30;69.40;;;;;;5047487;28;20271;-91
2021/04/13 01:31:56;;;;;;;5.57;4.43;;;5.40;69.10;;;;;;5064829;28;20215;-91
2021/04/13 01:34:36;;;;;;;5.67;4.57;;;5.20;68.90;;;;;;5064839;28;20191;-91
2021/04/13 01:37:26;;;;;;;4.77;4.33;;;5.20;69.80;;;;;;5047779;28;20180;-92
2021/04/13 01:40:04;;;;;;;4.10;3.67;;;5.20;69.90;;;;;;5046429;28;20184;-92
2021/04/13 01:42:33;;;;;;;4.07;3.70;;;5.30;70.20;;;;;;5063741;28;20216;-91
2021/04/13 01:45:03;;;;;;;8.27;4.37;;;5.30;70.20;;;;;;5064591;28;20237;-92
2021/04/13 01:47:30;;;;;;;7.40;4.33;;;5.30;70.00;;;;;;5064633;28;20236;-91
2021/04/13 01:50:03;;;;;;;4.80;4.40;;;5.30;70.00;;;;;;5047045;28;20176;-91
2021/04/13 01:52:42;;;;;;;5.17;4.60;;;5.30;70.20;;;;;;5030637;28;20219;-92
2021/04/13 01:55:24;;;;;;;4.60;3.90;;;5.30;70.50;;;;;;5047112;28;20230;-91
2021/04/13 01:58:28;;;;;;;4.40;4.00;;;5.40;70.40;;;;;;5064613;28;20164;-91
2021/04/13 02:01:13;;;;;;;5.47;4.97;;;5.30;69.90;;;;;;5060792;28;20195;-91
2021/04/13 02:03:46;;;;;;;5.00;3.63;;;5.10;71.10;;;;;;5064375;28;20601;-91
2021/04/13 02:06:44;;;;;;;4.90;4.10;;;5.00;72.10;;;;;;5062823;28;20187;-91
2021/04/13 02:10:23;;;;;;;4.80;4.30;;;5.10;72.30;;;;;;5078106;28;20167;-92
2021/04/13 02:12:27;;;;;;;5.00;4.17;;;5.20;71.80;;;;;;5066091;28;20706;-91
2021/04/13 02:15:22;;;;;;;5.23;4.20;;;5.20;72.00;;;;;;5067126;28;20180;-91
2021/04/13 02:17:54;;;;;;;4.60;4.20;;;5.20;71.70;;;;;;5083366;28;20175;-92
2021/04/13 02:20:29;;;;;;;4.80;4.10;;;5.30;71.80;;;;;;5084624;28;20251;-90
2021/04/13 02:22:56;;;;;;;6.03;4.13;;;5.40;71.60;;;;;;5044107;28;20232;-92
2021/04/13 02:25:35;;;;;;;5.27;4.13;;;5.40;71.40;;;;;;5043481;28;20362;-91
2021/04/13 02:28:05;;;;;;;5.20;3.97;;;5.50;71.60;;;;;;5044347;28;20165;-91
2021/04/13 02:30:42;;;;;;;4.53;4.13;;;5.50;71.70;;;;;;5057256;28;20176;-91
2021/04/13 02:33:17;;;;;;;5.47;4.30;;;5.50;71.70;;;;;;5063771;28;20189;-91
2021/04/13 02:35:44;;;;;;;4.27;3.80;;;5.60;71.70;;;;;;5064343;28;20176;-91
2021/04/13 02:38:17;;;;;;;5.03;4.37;;;5.60;71.90;;;;;;5063639;28;20176;-90
2021/04/13 02:40:51;;;;;;;4.43;4.03;;;5.60;72.00;;;;;;5062056;28;20180;-91
2021/04/13 02:43:30;;;;;;;6.63;4.80;;;5.70;72.20;;;;;;5063031;28;20195;-90
2021/04/13 02:46:05;;;;;;;6.60;5.80;;;5.80;72.60;;;;;;5062731;28;20160;-91
2021/04/13 02:48:40;;;;;;;7.23;5.83;;;5.80;72.90;;;;;;5030022;28;20191;-90
2021/04/13 02:51:09;;;;;;;6.43;5.83;;;5.70;72.70;;;;;;5063021;28;20261;-91
2021/04/13 02:53:46;;;;;;;5.53;5.03;;;5.70;72.90;;;;;;5063937;28;20184;-90
2021/04/13 02:56:18;;;;;;;6.10;5.50;;;5.70;73.70;;;;;;5066674;28;20175;-91
2021/04/13 02:59:17;;;;;;;7.03;6.30;;;5.70;73.50;;;;;;5076493;28;20275;-89
2021/04/13 03:01:48;;;;;;;7.20;6.50;;;5.70;74.00;;;;;;5081623;28;20215;-90
2021/04/13 03:04:15;;;;;;;9.60;7.03;;;5.50;75.50;;;;;;5074680;28;20204;-92
2021/04/13 03:06:46;;;;;;;7.33;6.03;;;5.50;76.50;;;;;;5065459;28;20182;-90
2021/04/13 03:09:14;;;;;;;6.80;6.20;;;5.50;76.70;;;;;;5030790;28;20180;-91
2021/04/13 03:11:48;;;;;;;6.33;5.77;;;5.50;77.20;;;;;;5047509;28;20211;-91
2021/04/13 03:14:18;;;;;;;6.17;5.57;;;5.50;77.50;;;;;;5047740;28;20180;-91
2021/04/13 03:16:45;;;;;;;6.97;5.70;;;5.30;78.80;;;;;;5047163;28;20543;-91
2021/04/13 03:19:16;;;;;;;6.20;5.60;;;5.20;78.00;;;;;;5031154;28;20261;-91
2021/04/13 03:21:47;;;;;;;6.97;6.37;;;5.30;77.80;;;;;;5030466;28;20549;-91
2021/04/13 03:24:19;;;;;;;8.27;6.17;;;5.50;78.10;;;;;;5064440;28;20720;-92
2021/04/13 03:26:47;;;;;;;7.07;6.07;;;5.40;78.40;;;;;;5064623;28;20194;-92
2021/04/13 03:29:27;;;;;;;7.07;6.37;;;5.30;78.90;;;;;;5046780;28;20184;-91
2021/04/13 03:31:55;;;;;;;6.63;6.10;;;5.40;78.50;;;;;;5064838;28;20264;-91
2021/04/13 03:34:23;;;;;;;5.47;4.97;;;5.40;78.50;;;;;;5064702;28;20175;-92
2021/04/13 03:36:51;;;;;;;6.03;5.43;;;5.50;77.90;;;;;;5064721;28;20181;-91
2021/04/13 03:39:26;;;;;;;6.33;5.67;;;5.60;76.80;;;;;;5064700;28;20180;-91
2021/04/13 03:41:52;;;;;;;7.50;6.33;;;5.70;76.40;;;;;;5064126;28;20195;-92
2021/04/13 03:44:19;;;;;;;8.33;5.77;;;5.70;75.00;;;;;;5064406;28;20199;-91
2021/04/13 03:46:46;;;;;;;6.43;5.83;;;5.60;76.90;;;;;;5064367;28;20184;-91
2021/04/13 03:49:33;;;;;;;7.47;6.60;;;5.60;76.70;;;;;;5064239;28;20280;-92
2021/04/13 03:52:06;;;;;;;6.47;5.87;;;5.50;76.80;;;;;;5064557;28;20192;-91
2021/04/13 03:54:35;;;;;;;5.57;5.03;;;5.30;76.20;;;;;;5046829;28;20234;-90
2021/04/13 03:57:02;;;;;;;7.30;5.90;;;5.40;76.70;;;;;;5065434;28;20180;-91
2021/04/13 03:59:33;;;;;;;7.63;6.80;;;5.50;76.10;;;;;;5033622;28;20188;-91
2021/04/13 04:02:00;;;;;;;7.47;5.57;;;5.50;76.10;;;;;;5046197;28;20231;-91
2021/04/13 04:04:44;;;;;;;7.93;5.70;;;5.50;76.10;;;;;;5064073;28;20191;-91
2021/04/13 04:07:39;;;;;;;5.67;5.17;;;5.50;75.80;;;;;;5063724;28;20164;-90
2021/04/13 04:10:45;;;;;;;6.57;5.97;;;5.50;75.10;;;;;;5063519;28;20570;-91
2021/04/13 04:13:17;;;;;;;6.53;5.70;;;5.70;75.10;;;;;;5062232;28;20199;-91
2021/04/13 04:15:44;;;;;;;6.00;5.50;;;5.70;74.40;;;;;;5063826;28;20180;-91
2021/04/13 04:18:21;;;;;;;6.47;5.80;;;5.70;74.40;;;;;;5046792;28;20192;-91
2021/04/13 04:20:46;;;;;;;5.80;5.30;;;5.70;74.40;;;;;;5045300;28;20184;-91
2021/04/13 04:23:22;;;;;;;6.37;5.77;;;5.60;75.10;;;;;;5063317;28;20242;-91
2021/04/13 04:25:52;;;;;;;5.70;5.20;;;5.60;76.10;;;;;;5063429;28;20176;-90
2021/04/13 04:28:35;;;;;;;6.53;5.87;;;5.70;75.60;;;;;;5063611;28;20165;-91
2021/04/13 04:31:35;;;;;;;6.97;6.27;;;5.70;74.90;;;;;;5063379;28;20192;-91
2021/04/13 04:34:13;;;;;;;6.63;6.03;;;5.60;75.00;;;;;;5063704;28;20177;-91
2021/04/13 04:36:43;;;;;;;7.47;6.03;;;5.60;76.80;;;;;;5064671;28;20195;-91
2021/04/13 04:39:28;;;;;;;6.67;5.97;;;5.70;76.10;;;;;;5065020;28;20567;-90
2021/04/13 04:41:56;;;;;;;7.13;6.43;;;5.70;75.40;;;;;;5064882;28;20245;-90
2021/04/13 04:44:25;;;;;;;7.40;6.70;;;5.70;75.10;;;;;;5064692;28;20184;-92
2021/04/13 04:46:53;;;;;;;7.07;6.00;;;5.60;74.70;;;;;;5064311;28;20176;-91
2021/04/13 04:49:19;;;;;;;6.47;5.77;;;5.60;74.70;;;;;;5061790;28;20236;-91
2021/04/13 04:51:51;;;;;;;6.40;5.80;;;5.60;75.30;;;;;;5027308;28;20571;-90
2021/04/13 04:54:17;;;;;;;7.07;6.03;;;5.70;74.80;;;;;;5044298;28;20671;-89
2021/04/13 04:56:43;;;;;;;7.40;6.70;;;5.70;74.80;;;;;;5052183;28;20233;-89
2021/04/13 04:59:09;;;;;;;7.23;6.53;;;5.70;74.60;;;;;;5045542;28;20263;-89
2021/04/13 05:01:35;;;;;;;8.00;7.20;;;5.70;74.20;;;;;;5064012;28;20238;-88
2021/04/13 05:04:01;;;;;;;7.93;7.13;;;5.70;73.50;;;;;;5063835;28;20212;-89
2021/04/13 05:06:27;;;;;;;12.20;9.67;;;5.70;73.40;;;;;;5025918;28;20184;-89
2021/04/13 05:08:54;;;;;;;10.70;9.60;;;5.80;72.90;;;;;;5025716;28;20211;-89
2021/04/13 05:11:20;;;;;;;9.50;8.60;;;5.70;73.50;;;;;;5054512;28;20659;-89
2021/04/13 05:13:46;;;;;;;7.70;7.00;;;5.70;73.40;;;;;;5063249;28;20258;-89
2021/04/13 05:16:12;;;;;;;7.73;7.03;;;5.50;73.80;;;;;;5045501;28;20271;-89
2021/04/13 05:18:38;;;;;;;8.30;7.17;;;5.50;74.00;;;;;;5044422;28;20219;-89
2021/04/13 05:21:06;;;;;;;7.40;6.70;;;5.50;73.70;;;;;;5045513;28;20208;-88
2021/04/13 05:23:32;;;;;;;7.47;6.73;;;5.60;73.10;;;;;;5064972;28;20196;-88
2021/04/13 05:25:57;;;;;;;6.80;6.20;;;5.50;74.80;;;;;;5069147;28;20176;-88
2021/04/13 05:28:23;;;;;;;7.20;6.53;;;5.20;76.40;;;;;;5067613;28;20191;-88
2021/04/13 05:30:50;;;;;;;7.47;6.13;;;5.00;76.80;;;;;;5048628;28;20185;-89
2021/04/13 05:33:17;;;;;;;6.73;6.03;;;5.10;76.90;;;;;;5055673;28;20215;-90
2021/04/13 05:35:43;;;;;;;6.90;6.27;;;5.10;75.90;;;;;;5031007;28;20184;-88
2021/04/13 05:38:19;;;;;;;6.27;5.67;;;5.10;75.10;;;;;;5046855;28;20184;-87
2021/04/13 05:40:45;;;;;;;6.20;5.60;;;5.00;75.50;;;;;;5064075;28;20222;-88
2021/04/13 05:43:12;;;;;;;6.40;5.77;;;5.10;75.40;;;;;;5046450;28;20681;-89
2021/04/13 05:45:41;;;;;;;6.27;5.67;;;5.00;75.50;;;;;;5064942;28;20184;-88
2021/04/13 05:48:08;;;;;;;10.70;6.90;;;5.00;76.50;;;;;;5046970;28;20292;-88
2021/04/13 05:50:36;;;;;;;7.03;5.90;;;5.00;75.40;;;;;;5066580;28;20177;-88
2021/04/13 05:53:03;;;;;;;7.10;6.40;;;5.00;75.50;;;;;;5072554;28;20247;-87
2021/04/13 05:55:30;;;;;;;7.83;5.87;;;5.10;75.70;;;;;;5051146;28;20187;-88
2021/04/13 05:58:02;;;;;;;7.40;6.10;;;5.20;75.50;;;;;;5070289;28;20168;-89
2021/04/13 06:00:29;;;;;;;6.93;6.23;;;5.20;75.40;;;;;;5064380;28;20157;-89
2021/04/13 06:02:54;;;;;;;7.83;6.80;;;5.30;75.20;;;;;;5065601;28;20216;-88
2021/04/13 06:05:24;;;;;;;7.40;5.93;;;5.30;75.40;;;;;;5065971;28;20609;-87
2021/04/13 06:07:50;;;;;;;6.70;5.93;;;5.40;75.30;;;;;;5047544;28;20236;-89
2021/04/13 06:10:16;;;;;;;6.83;6.17;;;5.40;75.10;;;;;;5047258;28;20176;-85
2021/04/13 06:12:43;;;;;;;8.97;6.67;;;5.40;75.00;;;;;;5044468;28;20212;-89
2021/04/13 06:15:12;;;;;;;7.63;6.83;;;5.50;74.70;;;;;;5043015;28;20177;-88
2021/04/13 06:17:39;;;;;;;9.43;8.53;;;5.50;74.70;;;;;;5051678;28;20236;-87
2021/04/13 06:20:05;;;;;;;7.10;6.40;;;5.40;73.90;;;;;;5044078;28;20185;-88
2021/04/13 06:22:31;;;;;;;7.30;6.60;;;5.20;75.90;;;;;;5045067;28;20204;-87
2021/04/13 06:24:57;;;;;;;8.17;7.37;;;5.10;77.40;;;;;;5045071;28;20263;-88
2021/04/13 06:27:22;;;;;;;8.80;7.93;;;5.10;77.90;;;;;;5036979;28;20180;-91
2021/04/13 06:29:48;;;;;;;9.63;8.73;;;5.20;77.20;;;;;;5077410;28;20239;-90
2021/04/13 06:32:17;;;;;;;10.37;9.33;;;5.10;75.90;;;;;;5074702;28;20212;-87
2021/04/13 06:34:42;;;;;;;10.57;9.47;;;5.20;75.70;;;;;;5064715;28;20187;-89
2021/04/13 06:37:10;;;;;;;12.23;11.00;;;5.30;74.30;;;;;;5052596;28;20223;-87
2021/04/13 06:39:37;;;;;;;10.63;9.53;;;5.20;72.90;;;;;;5046251;28;20188;-87
2021/04/13 06:42:15;;;;;;;11.20;10.00;;;5.30;72.80;;;;;;5062998;28;20307;-88
2021/04/13 06:45:09;;;;;;;13.43;11.67;;;5.30;73.00;;;;;;5044671;28;20173;-86
2021/04/13 06:47:44;;;;;;;13.37;11.40;;;5.30;72.50;;;;;;5025963;28;20170;-89
2021/04/13 06:50:09;;;;;;;13.70;12.00;;;5.30;71.80;;;;;;5060426;28;20215;-87
2021/04/13 06:52:45;;;;;;;12.30;11.10;;;5.30;72.20;;;;;;5045588;28;20207;-87
2021/04/13 06:55:20;;;;;;;13.17;11.83;;;5.40;70.30;;;;;;5046176;28;20218;-87
2021/04/13 06:57:54;;;;;;;14.43;11.60;;;5.30;71.30;;;;;;5063408;28;20187;-87
2021/04/13 07:00:51;;;;;;;13.07;11.43;;;5.20;71.40;;;;;;5063611;28;20191;-87
2021/04/13 07:03:30;;;;;;;16.77;12.83;;;5.10;72.10;;;;;;5052848;28;20259;-88
2021/04/13 07:06:13;;;;;;;14.90;12.50;;;5.00;72.50;;;;;;5063807;28;20172;-88
2021/04/13 07:08:43;;;;;;;15.20;13.10;;;4.90;72.20;;;;;;5044605;28;20158;-87
2021/04/13 07:11:20;;;;;;;12.73;11.43;;;5.00;72.30;;;;;;5055991;28;20200;-87
2021/04/13 07:13:59;;;;;;;13.97;12.17;;;5.10;72.00;;;;;;5045301;28;20222;-87
2021/04/13 07:16:37;;;;;;;17.23;14.13;;;5.30;71.30;;;;;;5063369;28;20218;-87
2021/04/13 07:19:17;;;;;;;17.47;14.50;;;5.40;69.50;;;;;;5042422;28;20279;-87
2021/04/13 07:22:22;;;;;;;16.80;14.87;;;5.30;69.60;;;;;;5055769;28;20287;-87
2021/04/13 07:25:14;;;;;;;17.20;14.40;;;5.40;69.50;;;;;;5054898;28;20199;-87
2021/04/13 07:27:59;;;;;;;16.63;13.70;;;5.40;69.60;;;;;;5032225;28;20210;-88
2021/04/13 07:30:32;;;;;;;16.30;14.23;;;5.50;69.00;;;;;;5056068;28;20199;-87
2021/04/13 07:33:00;;;;;;;16.47;14.30;;;5.50;67.40;;;;;;5029532;28;20201;-88
2021/04/13 07:35:35;;;;;;;17.80;15.63;;;5.50;66.60;;;;;;5029236;28;20238;-88
2021/04/13 07:38:05;;;;;;;14.33;12.73;;;5.50;67.40;;;;;;5046640;28;20181;-89
2021/04/13 07:40:35;;;;;;;16.20;13.90;;;5.60;66.60;;;;;;5043276;28;20192;-89
2021/04/13 07:43:10;;;;;;;16.77;13.40;;;5.60;65.60;;;;;;5048141;28;20206;-90
2021/04/13 07:46:02;;;;;;;16.60;14.80;;;5.60;67.40;;;;;;5059378;28;20181;-90
2021/04/13 07:48:48;;;;;;;14.87;13.27;;;5.70;66.20;;;;;;5053394;28;20197;-91
2021/04/13 07:51:39;;;;;;;15.37;13.77;;;6.00;64.90;;;;;;5061186;28;20295;-90
2021/04/13 07:54:25;;;;;;;16.50;14.63;;;6.10;63.70;;;;;;5052496;28;20196;-90
2021/04/13 07:57:21;;;;;;;16.63;14.77;;;6.10;64.30;;;;;;5060188;28;20198;-90
2021/04/13 07:59:50;;;;;;;16.07;14.27;;;6.10;63.80;;;;;;5056197;28;20196;-90
2021/04/13 08:02:16;;;;;;;16.47;14.70;;;6.00;64.30;;;;;;5035467;28;20306;-91
2021/04/13 08:04:48;;;;;;;15.60;13.90;;;6.10;64.50;;;;;;5050726;28;20231;-90
2021/04/13 08:07:24;;;;;;;14.73;13.23;;;6.30;63.00;;;;;;5040925;28;20181;-91
2021/04/13 08:10:26;;;;;;;16.33;14.63;;;6.30;62.30;;;;;;5069211;28;20181;-90
2021/04/13 08:13:01;;;;;;;16.40;14.70;;;6.40;61.90;;;;;;5056790;28;20276;-90
2021/04/13 08:15:39;;;;;;;15.90;14.10;;;6.70;61.80;;;;;;5070783;28;20187;-90
2021/04/13 08:18:16;;;;;;;15.93;13.87;;;6.80;61.00;;;;;;5065653;28;20187;-91
2021/04/13 08:20:45;;;;;;;18.50;15.60;;;6.70;61.40;;;;;;5052886;28;20599;-91
2021/04/13 08:23:36;;;;;;;15.93;14.23;;;6.60;61.00;;;;;;5061562;28;20235;-90
2021/04/13 08:26:27;;;;;;;15.67;14.07;;;6.60;62.20;;;;;;5041399;28;20200;-91
2021/04/13 08:29:03;;;;;;;17.30;15.50;;;6.70;61.20;;;;;;5038096;28;20678;-91
2021/04/13 08:34:40;;;;;;;16.57;13.93;;;6.70;62.70;;;;;;5055176;28;20192;-91
2021/04/13 08:37:27;;;;;;;16.63;14.83;;;6.90;61.80;;;;;;5037314;28;20213;-91
2021/04/13 08:40:35;;;;;;;17.00;14.97;;;7.20;61.50;;;;;;5056949;28;20173;-91
2021/04/13 08:43:15;;;;;;;16.57;14.77;;;7.50;60.60;;;;;;5033328;28;20212;-91
2021/04/13 08:45:49;;;;;;;15.23;13.77;;;7.70;59.30;;;;;;5054140;28;20176;-91
2021/04/13 08:48:24;;;;;;;16.90;15.20;;;7.70;58.60;;;;;;5058258;28;20534;-91
2021/04/13 08:51:06;;;;;;;16.07;14.23;;;7.80;57.90;;;;;;5047904;28;20184;-91
2021/04/13 08:53:41;;;;;;;15.77;13.43;;;8.00;56.90;;;;;;5056064;28;20667;-91
2021/04/13 08:56:28;;;;;;;14.63;13.23;;;8.10;56.10;;;;;;5033731;28;20268;-91
2021/04/13 08:59:00;;;;;;;15.47;13.87;;;8.30;56.80;;;;;;5054304;28;20184;-91
2021/04/13 09:01:38;;;;;;;15.97;14.50;;;8.50;56.10;;;;;;5058733;28;20228;-92
2021/04/13 09:04:10;;;;;;;15.50;13.40;;;8.50;55.30;;;;;;5044186;28;20227;-90
2021/04/13 09:07:03;;;;;;;14.07;12.63;;;8.40;54.40;;;;;;5060804;28;20543;-91
2021/04/13 09:09:42;;;;;;;13.63;12.30;;;8.60;53.00;;;;;;5050618;28;20223;-90
2021/04/13 09:12:22;;;;;;;15.00;13.50;;;8.50;52.60;;;;;;5060687;28;20206;-90
2021/04/13 09:14:53;;;;;;;13.70;12.20;;;8.70;52.40;;;;;;5062788;28;20920;-91
2021/04/13 09:17:19;;;;;;;11.87;10.73;;;8.70;51.40;;;;;;5052162;28;20185;-91
2021/04/13 09:19:58;;;;;;;12.87;11.77;;;8.40;51.00;;;;;;5062396;28;20188;-90
2021/04/13 09:22:32;;;;;;;14.17;12.80;;;8.30;51.00;;;;;;5059712;28;20211;-90
2021/04/13 09:25:30;;;;;;;13.10;11.80;;;8.50;52.30;;;;;;5058904;28;20174;-91
2021/04/13 09:28:19;;;;;;;11.50;10.40;;;8.80;50.40;;;;;;5051227;28;20222;-90
2021/04/13 09:30:50;;;;;;;9.77;8.97;;;8.50;48.20;;;;;;5065787;28;20186;-91
2021/04/13 09:33:36;;;;;;;11.80;10.80;;;8.50;47.90;;;;;;5055838;28;20247;-91
2021/04/13 09:36:20;;;;;;;12.20;10.90;;;8.50;48.90;;;;;;5054636;28;20188;-91
2021/04/13 09:39:03;;;;;;;12.27;11.13;;;8.70;48.60;;;;;;5040193;28;20183;-89
2021/04/13 09:41:54;;;;;;;11.13;10.03;;;8.80;47.50;;;;;;5036886;28;20212;-91
2021/04/13 09:44:47;;;;;;;11.03;9.93;;;8.60;47.70;;;;;;5064358;28;20212;-91
2021/04/13 09:47:43;;;;;;;9.40;8.60;;;8.50;48.80;;;;;;5041453;28;20283;-91
2021/04/13 09:50:17;;;;;;;9.20;8.40;;;8.50;46.30;;;;;;5058338;28;20184;-91
2021/04/13 09:53:04;;;;;;;11.43;10.43;;;8.50;46.00;;;;;;5064912;28;20214;-91
2021/04/13 09:55:54;;;;;;;11.67;10.47;;;8.80;46.20;;;;;;5062412;28;20252;-91
2021/04/13 09:58:43;;;;;;;12.43;11.23;;;8.90;46.60;;;;;;5053304;28;20150;-91
2021/04/13 10:01:44;;;;;;;11.13;10.00;;;9.30;46.60;;;;;;5029728;28;20339;-91
2021/04/13 10:04:30;;;;;;;12.13;9.53;;;9.20;45.50;;;;;;5028180;28;20239;-91
2021/04/13 10:07:15;;;;;;;10.83;8.47;;;8.90;45.60;;;;;;5060090;28;21037;-91
2021/04/13 10:09:42;;;;;;;9.17;8.33;;;8.70;44.90;;;;;;5058155;28;20193;-90
2021/04/13 10:12:20;;;;;;;8.60;7.77;;;9.00;43.10;;;;;;5057424;28;20200;-91
2021/04/13 10:15:04;;;;;;;10.07;9.17;;;8.80;43.20;;;;;;5065395;28;20192;-91
2021/04/13 10:17:58;;;;;;;9.33;8.43;;;9.00;44.30;;;;;;5046555;28;20196;-90
2021/04/13 10:20:30;;;;;;;9.87;8.33;;;9.00;42.50;;;;;;5006280;28;20236;-91
2021/04/13 10:23:16;;;;;;;10.30;9.40;;;8.90;43.20;;;;;;5043356;28;20235;-91
2021/04/13 10:26:00;;;;;;;10.80;9.80;;;9.00;46.30;;;;;;5059555;28;20185;-90
2021/04/13 10:28:44;;;;;;;10.07;9.13;;;9.60;45.50;;;;;;5053213;28;20254;-91
2021/04/13 10:31:27;;;;;;;13.20;11.90;;;10.20;43.70;;;;;;5043559;28;20209;-90
2021/04/13 10:33:56;;;;;;;10.87;8.30;;;10.90;42.10;;;;;;5064679;28;20267;-89
2021/04/13 10:36:36;;;;;;;7.67;7.00;;;10.60;40.00;;;;;;5063694;28;20187;-91
2021/04/13 10:39:11;;;;;;;7.83;7.03;;;10.50;37.90;;;;;;5061318;28;20192;-89
2021/04/13 10:42:02;;;;;;;8.30;7.50;;;10.30;38.70;;;;;;5062290;28;20722;-89
2021/04/13 10:45:02;;;;;;;8.93;7.80;;;10.50;37.60;;;;;;5035744;28;20231;-87
2021/04/13 10:48:00;;;;;;;24.13;8.40;;;10.80;37.20;;;;;;5052540;28;20543;-88
2021/04/13 10:50:41;;;;;;;10.87;6.67;;;11.30;35.70;;;;;;5060529;28;20647;-84
2021/04/13 10:53:26;;;;;;;9.73;6.83;;;11.80;34.60;;;;;;5044957;28;20188;-82
2021/04/13 10:56:29;;;;;;;7.67;7.07;;;11.90;33.20;;;;;;5059445;28;20192;-84
2021/04/13 10:59:52;;;;;;;7.70;6.77;;;11.90;32.60;;;;;;5055588;28;20192;-84
2021/04/13 11:02:58;;;;;;;6.93;6.33;;;12.40;34.30;;;;;;4990507;28;20213;-79
2021/04/13 11:05:38;;;;;;;6.43;5.83;;;12.50;32.30;;;;;;4997025;28;20843;-85
2021/04/13 11:08:25;;;;;;;9.20;7.80;;;12.70;30.50;;;;;;5049063;28;20204;-87
2021/04/13 11:11:02;;;;;;;120.20;79.13;;;12.80;30.60;;;;;;5059695;28;20246;-87
2021/04/13 11:13:55;;;;;;;15.67;13.37;;;13.10;30.30;;;;;;5059050;28;20196;-87
2021/04/13 11:16:59;;;;;;;49.13;35.30;;;13.40;31.10;;;;;;5054686;28;20242;-85
2021/04/13 11:19:42;;;;;;;25.67;19.17;;;13.30;32.80;;;;;;5060511;28;20191;-84
2021/04/13 11:22:29;;;;;;;25.70;20.67;;;13.30;32.90;;;;;;5063797;28;20575;-84
2021/04/13 11:25:26;;;;;;;12.67;11.37;;;13.00;32.60;;;;;;5060172;28;20188;-86
2021/04/13 11:28:19;;;;;;;12.73;7.83;;;12.50;32.20;;;;;;5049097;28;20185;-87
2021/04/13 11:30:54;;;;;;;8.67;7.70;;;12.30;32.50;;;;;;5052883;28;20212;-85
2021/04/13 11:33:41;;;;;;;9.00;8.00;;;12.80;32.30;;;;;;5065191;28;20186;-85
2021/04/13 11:36:35;;;;;;;8.07;7.27;;;12.70;30.60;;;;;;5059512;28;20184;-85
2021/04/13 11:39:10;;;;;;;6.97;6.37;;;12.80;30.90;;;;;;5054722;28;20230;-85
2021/04/13 11:41:53;;;;;;;7.23;6.53;;;12.90;29.80;;;;;;5060133;28;20211;-88
2021/04/13 11:44:40;;;;;;;7.83;7.10;;;12.70;30.00;;;;;;5044327;28;20232;-86
2021/04/13 11:47:12;;;;;;;11.97;7.43;;;12.50;30.20;;;;;;5040478;28;20176;-87
2021/04/13 11:49:57;;;;;;;8.20;7.50;;;13.10;30.50;;;;;;5067155;28;20180;-86
2021/04/13 11:52:53;;;;;;;8.67;7.23;;;13.40;29.10;;;;;;5051963;28;20225;-86
2021/04/13 11:55:28;;;;;;;7.67;6.90;;;14.20;28.70;;;;;;5061645;28;20180;-86
2021/04/13 11:58:20;;;;;;;8.77;7.87;;;13.70;30.10;;;;;;5059227;28;20194;-85
2021/04/13 12:00:49;;;;;;;8.17;7.37;;;12.40;30.50;;;;;;5060282;28;20196;-85
2021/04/13 12:03:14;;;;;;;8.50;7.60;;;11.90;31.80;;;;;;5055284;28;20212;-87
2021/04/13 12:05:46;;;;;;;7.07;6.47;;;11.70;31.10;;;;;;5052421;28;20176;-86
2021/04/13 12:08:39;;;;;;;8.00;7.20;;;11.60;31.30;;;;;;5039504;28;20180;-88
2021/04/13 12:11:37;;;;;;;8.20;6.40;;;11.80;31.70;;;;;;5060174;28;20690;-86
2021/04/13 12:14:41;;;;;;;9.73;8.83;;;12.30;31.30;;;;;;5054088;28;20208;-86
2021/04/13 12:17:44;;;;;;;7.90;7.07;;;13.40;31.60;;;;;;5057438;28;20192;-86
2021/04/13 12:20:33;;;;;;;8.87;7.50;;;13.70;30.30;;;;;;5063826;28;20810;-87
2021/04/13 12:23:02;;;;;;;7.87;7.17;;;13.90;29.60;;;;;;5058222;28;20218;-86
2021/04/13 12:25:43;;;;;;;9.87;8.90;;;13.80;29.70;;;;;;5033090;28;20201;-87
2021/04/13 12:28:10;;;;;;;11.60;7.27;;;14.50;29.50;;;;;;5060338;28;20261;-87
2021/04/13 12:30:42;;;;;;;7.50;6.90;;;14.90;27.60;;;;;;5062103;28;20191;-86
2021/04/13 12:33:30;;;;;;;10.43;7.10;;;14.60;27.60;;;;;;5054454;28;20237;-87
2021/04/13 12:36:08;;;;;;;7.33;6.73;;;14.00;28.20;;;;;;5028169;28;20229;-86
2021/04/13 12:38:42;;;;;;;7.30;6.60;;;14.20;27.90;;;;;;5055629;28;20199;-86
2021/04/13 12:41:21;;;;;;;6.53;6.03;;;14.50;28.00;;;;;;5056930;28;20208;-86
2021/04/13 12:44:00;;;;;;;7.67;6.97;;;14.50;27.70;;;;;;5053908;28;20233;-86
2021/04/13 12:46:31;;;;;;;7.47;6.77;;;14.50;27.30;;;;;;5059214;28;20243;-86
2021/04/13 12:49:05;;;;;;;6.60;6.00;;;15.00;27.00;;;;;;5054098;28;20190;-87
2021/04/13 12:51:37;;;;;;;6.60;6.00;;;15.00;26.50;;;;;;5055357;28;20210;-87
2021/04/13 12:54:31;;;;;;;6.37;5.80;;;15.00;25.80;;;;;;5055188;28;20683;-86
2021/04/13 12:57:08;;;;;;;7.03;6.17;;;15.60;25.70;;;;;;5054141;28;20196;-86
2021/04/13 12:59:35;;;;;;;6.60;6.00;;;15.00;25.90;;;;;;5056376;28;20255;-85
2021/04/13 13:02:04;;;;;;;6.80;6.20;;;14.40;26.60;;;;;;5049878;28;20232;-85
2021/04/13 13:04:37;;;;;;;7.33;6.63;;;14.90;27.00;;;;;;5059808;28;20211;-86
2021/04/13 13:07:06;;;;;;;6.40;5.87;;;15.50;27.30;;;;;;5018412;28;20441;-86
2021/04/13 13:09:38;;;;;;;6.77;6.07;;;15.70;26.20;;;;;;5057315;28;20181;-85
2021/04/13 13:12:13;;;;;;;6.80;6.10;;;14.80;26.60;;;;;;5050323;28;20212;-86
2021/04/13 13:14:43;;;;;;;6.87;6.27;;;14.20;27.20;;;;;;5052506;28;20227;-88
2021/04/13 13:17:14;;;;;;;6.60;6.00;;;14.40;27.50;;;;;;5067271;28;20178;-84
2021/04/13 13:19:50;;;;;;;6.70;6.10;;;15.30;28.00;;;;;;5062001;28;20212;-86
2021/04/13 13:22:25;;;;;;;6.47;5.87;;;16.00;25.90;;;;;;5056758;28;20209;-85
2021/04/13 13:24:52;;;;;;;7.33;6.67;;;16.00;25.50;;;;;;5052371;28;20194;-86
2021/04/13 13:27:22;;;;;;;7.83;7.03;;;15.80;25.90;;;;;;5032638;28;20205;-87
2021/04/13 13:29:49;;;;;;;7.83;6.87;;;15.80;25.40;;;;;;5054793;28;20656;-87
2021/04/13 13:32:17;;;;;;;19.07;17.43;;;16.30;24.60;;;;;;5035159;28;20212;-87
2021/04/13 13:34:43;;;;;;;17.00;15.73;;;17.10;24.40;;;;;;5056001;28;20192;-87
2021/04/13 13:37:12;;;;;;;7.13;6.57;;;17.20;23.50;;;;;;5051069;28;20180;-89
2021/04/13 13:39:39;;;;;;;9.70;8.73;;;17.20;23.70;;;;;;5051742;28;20181;-87
2021/04/13 13:42:10;;;;;;;18.53;9.03;;;16.30;24.10;;;;;;5053735;28;20201;-87